Latest Weather Observations for Port Augusta

IDS60801

Issued at 8:01 pm CST Monday 3 August 2015 (issued every 30 minutes, with the page automatically refreshed every 10 minutes)

About weather observations | Map of weather stations | Latest weather observations for SA | Other Formats
Station Details ID: 018201 Name: PORT AUGUSTA AERO Lat: -32.51 Lon: 137.72 Height: 13.97 m
Data from the previous 72 hours. | See also: Recent months at Port Augusta
Date/Time
CST
Temp
°C
App
Temp
°C
Dew
Point
Rel
Hum
%
Delta-T
°C
Wind Press
QNH
hPa
Press
MSL
hPa
Rain
since 9 am
mm
Dir
 
Spd
km/h
Gust
km/h
Spd
kts
Gust
kts
03/08:00pm 10.9 7.2 7.8 81 1.5 SSE 17 20 9 11 1028.7 - 0.0
03/07:30pm 10.9 6.7 7.4 79 1.7 SSE 19 22 10 12 1028.4 - 0.0
03/07:00pm 11.5 6.7 7.2 75 2.1 SSE 22 30 12 16 1028.2 - 0.0
03/06:30pm 12.0 7.9 8.8 81 1.6 SSE 20 26 11 14 1028.0 - 0.0
03/06:00pm 12.0 8.1 8.7 80 1.6 SE 19 26 10 14 1027.6 1027.5 0.0
03/05:30pm 12.1 6.8 8.4 78 1.8 SSE 26 35 14 19 1027.3 - 0.0
03/05:00pm 12.3 5.9 8.4 77 1.9 SSE 32 41 17 22 1027.2 - 0.0
03/04:30pm 12.9 6.8 8.4 74 2.2 SE 30 35 16 19 1026.9 - 0.0
03/04:00pm 13.5 8.6 8.4 71 2.5 SE 24 33 13 18 1026.8 - 0.0
03/03:30pm 13.4 9.0 9.1 75 2.2 SE 22 32 12 17 1026.9 - 0.0
03/03:00pm 13.3 7.7 8.8 74 2.2 SE 28 33 15 18 1026.6 1026.5 0.0
03/02:30pm 14.1 8.7 8.1 67 3.0 SE 26 35 14 19 1026.4 - 0.0
03/02:00pm 15.0 11.6 7.5 61 3.7 SE 15 20 8 11 1026.5 - 0.0
03/01:30pm 16.1 11.7 6.5 53 4.7 SW 19 24 10 13 1026.6 - 0.0
03/01:00pm 15.7 10.8 6.7 55 4.4 SSW 22 33 12 18 1026.9 - 0.0
03/12:30pm 15.5 10.2 6.8 56 4.3 SW 24 33 13 18 1027.3 - 0.0
03/12:00pm 15.3 10.4 7.1 58 4.0 SW 22 30 12 16 1027.6 1027.5 0.0
03/11:30am 14.8 10.3 7.1 60 3.8 SW 20 26 11 14 1027.9 - 0.0
03/11:00am 14.3 10.5 7.4 63 3.4 SW 17 22 9 12 1028.3 - 0.0
03/10:30am 13.5 11.7 7.3 66 3.0 NNW 6 11 3 6 1028.4 - 0.0
03/10:00am 13.2 11.0 7.9 70 2.6 WNW 9 13 5 7 1028.5 - 0.0
03/09:30am 12.3 10.0 7.6 73 2.3 WNW 9 13 5 7 1028.4 - 0.0
03/09:00am 11.5 9.4 8.2 80 1.6 W 9 11 5 6 1028.2 1028.1 0.0
03/08:30am 10.6 9.9 8.4 86 1.1 SW 2 7 1 4 1027.9 - 0.0
03/08:00am 10.1 8.5 8.2 88 0.9 SW 6 9 3 5 1027.8 - 0.0
03/07:30am 9.6 7.4 8.0 90 0.8 SW 9 17 5 9 1027.7 - 0.0
03/07:00am 9.2 7.3 7.6 90 0.8 W 7 9 4 5 1027.4 - 0.0
03/06:30am 9.2 7.4 8.0 92 0.6 NW 7 9 4 5 1026.9 - 0.0
03/06:00am 9.3 7.5 7.9 91 0.7 WNW 7 9 4 5 1027.0 1026.9 0.0
03/05:30am 9.1 7.2 7.7 91 0.7 NW 7 11 4 6 1026.9 - 0.0
03/05:00am 8.8 7.4 7.4 91 0.7 NNW 4 7 2 4 1026.5 - 0.0
03/04:30am 8.8 6.5 7.4 91 0.7 N 9 9 5 5 1026.4 - 0.0
03/04:00am 9.1 7.4 7.4 89 0.8 WNW 6 7 3 4 1026.3 - 0.0
03/03:30am 9.2 6.5 7.5 89 0.8 WNW 11 13 6 7 1026.4 - 0.0
03/03:00am 8.6 5.5 7.1 90 0.7 W 13 15 7 8 1026.3 1026.2 0.0
03/02:30am 8.0 4.3 6.3 89 0.8 W 15 15 8 8 1026.5 - 0.0
03/02:00am 7.4 4.7 5.7 89 0.8 W 9 13 5 7 1026.6 - 0.0
03/01:30am 8.8 6.4 6.8 87 0.9 W 9 9 5 5 1026.7 - 0.0
03/01:00am 8.8 5.7 7.1 89 0.8 WSW 13 15 7 8 1026.7 - 0.0
03/12:30am 7.6 4.6 5.9 89 0.8 WSW 11 13 6 7 1026.7 - 0.0
03/12:00am 7.1 4.7 5.1 87 0.9 SW 7 9 4 5 1026.7 1026.6 0.0
 
Date/Time
CST
Temp
°C
App
Temp
°C
Dew
Point
Rel
Hum
%
Delta-T
°C
Wind Press
QNH
hPa
Press
MSL
hPa
Rain
since 9 am
mm
Dir
 
Spd
km/h
Gust
km/h
Spd
kts
Gust
kts
02/11:30pm 7.3 4.8 4.9 85 1.1 SSW 7 9 4 5 1026.7 - 0.0
02/11:00pm 8.9 6.7 6.0 82 1.3 SSW 7 9 4 5 1026.4 - 0.0
02/10:30pm 9.2 6.6 5.9 80 1.5 SSW 9 11 5 6 1026.5 - 0.0
02/10:00pm 10.8 7.9 6.7 76 1.9 SW 11 13 6 7 1026.2 - 0.0
02/09:30pm 12.0 8.2 7.5 74 2.2 SSW 17 22 9 12 1026.4 - 0.0
02/09:00pm 11.1 7.4 6.5 73 2.2 SW 15 19 8 10 1026.1 1026.0 0.0
02/08:30pm 12.3 9.0 6.6 68 2.7 SW 13 17 7 9 1025.8 - 0.0
02/08:00pm 13.0 8.6 6.4 64 3.1 WSW 19 24 10 13 1025.3 - 0.0
02/07:30pm 13.0 9.9 5.4 60 3.5 SW 11 17 6 9 1025.0 - 0.0
02/07:00pm 13.8 9.9 5.2 56 4.0 SW 15 20 8 11 1024.5 - 0.0
02/06:30pm 14.4 10.0 5.0 53 4.4 SW 17 19 9 10 1024.2 - 0.0
02/06:00pm 12.5 10.4 5.9 64 3.1 SSE 6 9 3 5 1024.0 1023.9 0.0
02/05:30pm 13.3 9.9 5.9 61 3.5 SE 13 20 7 11 1023.8 - 0.0
02/05:00pm 13.6 10.2 6.0 60 3.6 SSE 13 22 7 12 1023.3 - 0.0
02/04:30pm 13.8 8.6 5.4 57 3.9 SSE 22 30 12 16 1023.2 - 0.0
02/04:00pm 14.1 8.8 5.2 55 4.2 SSE 22 28 12 15 1022.9 - 0.0
02/03:30pm 15.7 11.3 4.7 48 5.2 SSE 17 22 9 12 1022.7 - 0.0
02/03:00pm 16.4 10.4 3.1 41 6.0 SSW 24 32 13 17 1022.4 1022.3 0.0
02/02:30pm 17.3 11.6 2.9 38 6.6 SW 22 37 12 20 1022.3 - 0.0
02/02:00pm 16.4 9.8 2.1 38 6.4 SSW 26 41 14 22 1022.5 - 0.0
02/01:30pm 16.3 10.6 2.7 40 6.2 SW 22 33 12 18 1022.5 - 0.0
02/01:00pm 15.8 10.1 2.9 42 5.8 SSW 22 35 12 19 1022.7 - 0.0
02/12:30pm 15.7 9.9 2.5 41 5.9 SSW 22 30 12 16 1023.1 - 0.0
02/12:00pm 15.5 8.6 2.3 41 5.9 SSW 28 41 15 22 1023.4 1023.3 0.0
02/11:30am 14.6 8.7 1.5 41 5.7 SSW 22 39 12 21 1023.8 - 0.0
02/11:00am 14.4 8.6 2.3 44 5.3 SSW 22 33 12 18 1023.8 - 0.0
02/10:30am 13.4 6.5 2.6 48 4.8 SSW 28 35 15 19 1023.8 - 0.0
02/10:05am 13.2 6.3 2.7 49 4.6 SSW 28 46 15 25 1023.6 - 0.0
02/10:00am 12.7 6.6 2.8 51 4.4 SSW 24 33 13 18 1023.6 - 0.0
02/09:30am 11.1 8.4 5.4 68 2.6 WSW 9 13 5 7 1023.6 - 0.0
02/09:00am 10.3 6.0 5.3 71 2.3 SW 17 24 9 13 1023.3 1023.2 0.0
02/08:30am 9.5 6.6 6.4 81 1.4 SW 11 17 6 9 1022.8 - 0.0
02/08:00am 8.5 4.7 5.8 83 1.2 SSW 15 20 8 11 1022.3 - 0.0
02/07:30am 8.2 3.5 6.0 86 1.0 S 20 24 11 13 1021.7 - 0.0
02/07:00am 8.1 3.6 6.2 88 0.9 S 19 22 10 12 1021.4 - 0.0
02/06:30am 8.5 4.8 6.1 85 1.1 SSW 15 20 8 11 1021.0 - 0.0
02/06:00am 8.7 4.2 6.0 83 1.2 SSE 19 20 10 11 1020.5 1020.4 0.0
02/05:30am 8.8 4.7 6.4 85 1.1 S 17 22 9 12 1020.2 - 0.0
02/05:00am 8.4 3.9 6.2 86 1.0 S 19 22 10 12 1019.9 - 0.0
02/04:30am 9.3 4.7 6.4 82 1.3 SSE 20 26 11 14 1019.7 - 0.0
02/04:00am 9.8 3.3 6.3 79 1.6 S 30 39 16 21 1019.4 - 0.0
02/03:30am 9.5 3.4 6.6 82 1.4 S 28 43 15 23 1019.1 - 0.0
02/03:00am 9.0 3.3 6.8 86 1.0 S 26 33 14 18 1018.7 1018.6 0.0
02/02:30am 9.6 3.6 7.0 84 1.2 S 28 41 15 22 1018.1 - 0.0
02/02:00am 9.6 3.6 7.2 85 1.1 SSE 28 39 15 21 1017.7 - 0.0
02/01:30am 10.1 4.9 7.2 82 1.4 SE 24 35 13 19 1018.3 - 0.0
02/01:00am 10.6 3.7 7.1 79 1.7 SSE 33 46 18 25 1017.7 - 0.0
02/12:30am 10.1 4.0 6.8 80 1.6 SSE 28 37 15 20 1018.0 - 0.0
02/12:00am 11.0 3.5 6.4 73 2.2 S 35 44 19 24 1018.4 1018.3 0.0
 
Date/Time
CST
Temp
°C
App
Temp
°C
Dew
Point
Rel
Hum
%
Delta-T
°C
Wind Press
QNH
hPa
Press
MSL
hPa
Rain
since 9 am
mm
Dir
 
Spd
km/h
Gust
km/h
Spd
kts
Gust
kts
01/11:30pm 11.9 4.6 7.0 72 2.3 S 35 43 19 23 1017.9 - 0.0
01/11:16pm 12.3 4.3 5.9 65 3.0 S 37 56 20 30 1018.3 - 0.0
01/11:00pm 12.1 4.6 6.4 68 2.7 S 35 46 19 25 1017.4 - 0.0
01/10:30pm 11.8 4.1 6.9 72 2.3 S 37 50 20 27 1017.4 - 0.0
01/10:00pm 12.3 3.6 6.1 66 2.9 SSE 41 52 22 28 1017.0 - 0.0
01/09:30pm 12.4 3.8 6.7 68 2.7 SSE 41 56 22 30 1016.3 - 0.0
01/09:00pm 12.3 4.0 7.6 73 2.3 SSE 41 54 22 29 1015.7 1015.6 0.0
01/08:30pm 12.1 5.1 8.4 78 1.8 S 35 50 19 27 1015.8 - 0.0
01/08:00pm 12.1 4.3 8.4 78 1.8 SSE 39 48 21 26 1014.8 - 0.0
01/07:48pm 12.4 4.6 8.3 76 2.0 SSE 39 57 21 31 1014.5 - 0.0
01/07:30pm 12.7 4.8 8.0 73 2.3 SSE 39 54 21 29 1014.2 - 0.0
01/07:00pm 13.0 5.3 8.5 74 2.2 SSE 39 52 21 28 1014.0 - 0.0
01/06:30pm 13.1 5.8 8.6 74 2.2 SSE 37 46 20 25 1014.2 - 0.0
01/06:00pm 13.6 6.9 8.0 69 2.8 SSE 33 46 18 25 1013.8 1013.7 0.0
01/05:30pm 13.9 6.3 9.1 73 2.4 SSE 39 54 21 29 1013.2 - 0.0
01/05:00pm 14.4 6.6 8.4 67 3.0 SSE 39 54 21 29 1013.4 - 0.0
01/04:30pm 15.3 6.9 7.3 59 4.0 SSE 41 54 22 29 1013.1 - 0.0
01/04:00pm 16.0 7.4 6.7 54 4.6 SSE 41 57 22 31 1013.1 - 0.0
01/03:30pm 15.3 8.0 8.8 65 3.3 SSE 37 50 20 27 1013.0 - 0.0
01/03:00pm 14.7 6.7 10.5 76 2.2 SSE 43 54 23 29 1013.4 1013.3 0.0
01/02:30pm 14.4 6.3 10.2 76 2.2 SE 43 61 23 33 1013.3 - 0.0
01/02:23pm 14.8 7.1 10.2 74 2.4 SE 41 61 22 33 1013.4 - 0.0
01/02:00pm 15.5 8.2 10.3 71 2.7 SSE 39 52 21 28 1014.4 - 0.0
01/01:30pm 14.6 7.8 10.6 77 2.1 SSE 37 46 20 25 1014.4 - 0.0
01/01:00pm 14.5 8.0 10.3 76 2.2 SE 35 44 19 24 1014.9 - 0.0
01/12:30pm 15.3 9.8 10.7 74 2.4 SSE 30 39 16 21 1014.8 - 0.0
01/12:00pm 14.6 8.5 9.8 73 2.5 SSE 32 43 17 23 1016.3 1016.2 0.0
01/11:30am 14.1 7.8 9.7 75 2.3 SSE 33 46 18 25 1015.8 - 0.0
01/11:00am 14.6 8.7 10.6 77 2.1 SE 32 44 17 24 1016.1 - 0.0
01/10:30am 14.9 10.5 10.5 75 2.3 SE 24 33 13 18 1016.8 - 0.0
01/10:00am 17.8 15.4 0.0 30 7.7 S 2 7 1 4 1016.2 - 0.0
01/09:30am 17.2 13.3 1.2 34 7.1 SW 11 13 6 7 1016.5 - 0.0
01/09:00am 16.3 11.8 2.0 38 6.4 WSW 15 20 8 11 1015.9 1015.8 0.2
01/08:30am 14.2 11.6 6.3 59 3.8 SW 9 13 5 7 1015.0 - 0.2
01/08:00am 12.5 9.6 6.5 67 2.9 SW 11 17 6 9 1015.2 - 0.2
01/07:30am 11.4 9.2 6.3 71 2.4 SSW 7 9 4 5 1014.9 - 0.2
01/07:00am 11.5 9.2 5.8 68 2.7 NE 7 11 4 6 1015.1 - 0.2
01/06:30am 12.4 8.8 4.9 60 3.4 E 13 15 7 8 1014.9 - 0.2
01/06:00am 12.5 10.1 5.4 62 3.3 NE 7 9 4 5 1014.8 1014.7 0.2
01/05:30am 13.5 11.0 3.8 52 4.4 NNE 6 9 3 5 1014.7 - 0.2
01/05:00am 12.9 10.3 4.3 56 3.9 SSE 7 9 4 5 1015.1 - 0.2
01/04:30am 13.6 9.4 3.7 51 4.5 W 15 22 8 12 1015.2 - 0.2
01/04:00am 11.9 9.9 7.0 72 2.3 WNW 7 9 4 5 1014.2 - 0.2
01/03:30am 12.3 9.3 5.9 65 3.0 W 11 13 6 7 1014.7 - 0.2
01/03:00am 13.7 10.3 6.1 60 3.6 W 13 17 7 9 1014.9 1014.8 0.2
01/02:30am 14.1 9.6 6.0 58 3.9 WSW 19 20 10 11 1015.5 - 0.2
01/02:00am 14.0 11.5 6.6 61 3.6 W 9 13 5 7 1014.5 - 0.2
01/01:30am 13.4 12.0 9.5 77 2.0 W 7 11 4 6 1014.4 - 0.2
01/01:00am 13.0 12.0 10.4 84 1.3 W 6 7 3 4 1014.7 - 0.2
01/12:30am 12.8 12.9 10.3 85 1.3 CALM 0 0 0 0 1014.9 - 0.2
01/12:00am 13.6 12.9 10.2 80 1.8 NE 4 6 2 3 1015.3 1015.2 0.2
 
Date/Time
CST
Temp
°C
App
Temp
°C
Dew
Point
Rel
Hum
%
Delta-T
°C
Wind Press
QNH
hPa
Press
MSL
hPa
Rain
since 9 am
mm
Dir
 
Spd
km/h
Gust
km/h
Spd
kts
Gust
kts
31/11:30pm 13.4 13.1 10.0 80 1.8 NNE 2 7 1 4 1015.3 - 0.0
31/11:00pm 13.6 13.8 10.6 82 1.6 CALM 0 0 0 0 1015.5 - 0.0
31/10:30pm 13.6 12.4 10.2 80 1.8 NE 7 9 4 5 1015.7 - 0.0
31/10:00pm 14.0 12.5 10.4 79 1.9 SW 9 11 5 6 1015.7 - 0.0
31/09:30pm 13.7 11.9 10.7 82 1.6 SSW 11 15 6 8 1016.1 - 0.0
31/09:00pm 13.3 12.8 10.7 84 1.4 S 4 9 2 5 1015.9 1015.8 0.0
31/08:30pm 13.7 12.7 10.3 80 1.8 WSW 6 7 3 4 1015.7 - 0.0

Other Formats:

Comma delimited format used in spreadsheet applications
http://www.bom.gov.au/fwo/IDS60801/IDS60801.95666.axf

JavaScript Object Notation format (JSON) in row-major order
http://www.bom.gov.au/fwo/IDS60801/IDS60801.95666.json